Awaji Maru — JD2988 — position and weather

sailwx.info

Track history (hours):
 
Tides and Currents Weather Stations Pressure Air Temp Water Temp Dewpoint Dewpoint Depression Visibility Wind Speed Wind Dir Waves Ship Positions

Awaji Maru

Last reported at 2014-Nov-27 21:33 UTC. Time now 2014-Nov-27 21:59 UTC.
Position N 35°27' E 139°39'.

Length 37 m; draft 3 m.

Type: Tug. MMSI: 431001074.

Date/timePositionNaut miles runAvg speedWind from/ knotsBaromVisibWave heightAir tempDewpointWater temp
2014-Nov-27 21:33N 35°27' E 139°39'1 0.6
2014-Nov-27 20:33N 35°27' E 139°39'0 0.0
2014-Nov-27 19:33N 35°27' E 139°39'0 0.0
2014-Nov-27 18:34N 35°27' E 139°39'0 0.0
2014-Nov-27 17:33N 35°27' E 139°39'0 0.0
2014-Nov-27 16:33N 35°27' E 139°39'0 0.0
2014-Nov-27 15:33N 35°27' E 139°39'0 0.0
2014-Nov-27 14:33N 35°27' E 139°39'0 0.0
2014-Nov-27 13:33N 35°27' E 139°39'0 0.0
2014-Nov-27 12:33N 35°27' E 139°39'0 0.0
2014-Nov-27 11:33N 35°27' E 139°39'0 0.0
2014-Nov-27 10:33N 35°27' E 139°39'0 0.0
2014-Nov-27 09:34N 35°27' E 139°39'0 0.0
2014-Nov-27 08:34N 35°27' E 139°39'0 0.0
2014-Nov-27 07:34N 35°27' E 139°39'0 0.0
2014-Nov-27 06:33N 35°27' E 139°39'0 0.0
2014-Nov-27 05:34N 35°27' E 139°39'0 0.0
2014-Nov-27 04:33N 35°27' E 139°39'0 0.0
2014-Nov-27 03:33N 35°27' E 139°39'0 0.0
2014-Nov-27 02:33N 35°27' E 139°39'0 0.0
2014-Nov-27 01:33N 35°27' E 139°39'0 0.0
2014-Nov-27 00:34N 35°27' E 139°39'0 0.0
2014-Nov-26 23:33N 35°27' E 139°39'2 1.8
2014-Nov-26 22:33N 35°27' E 139°41'1 0.9
2014-Nov-26 21:34N 35°27' E 139°42'0 0.0
2014-Nov-26 20:34N 35°27' E 139°42'0 0.0
2014-Nov-26 19:33N 35°27' E 139°42'0 0.0
2014-Nov-26 18:34N 35°27' E 139°42'0 0.0
2014-Nov-26 17:33N 35°27' E 139°42'1 0.8
2014-Nov-26 16:33N 35°28' E 139°42'1 1.0
2014-Nov-26 15:34N 35°28' E 139°40'0 0.0
2014-Nov-26 14:33N 35°28' E 139°40'0 0.0
2014-Nov-26 13:34N 35°28' E 139°40'1 0.8
2014-Nov-26 12:33N 35°27' E 139°41'0 0.1
2014-Nov-26 11:33N 35°27' E 139°41'1 0.6
2014-Nov-26 10:33N 35°28' E 139°42'2 2.4
2014-Nov-26 09:34N 35°27' E 139°44'4 4.2
2014-Nov-26 08:33N 35°27' E 139°39'0 0.4
2014-Nov-26 07:33N 35°27' E 139°39'0 0.0
2014-Nov-26 06:33N 35°27' E 139°39'0 0.0
2014-Nov-26 05:33N 35°27' E 139°39'0 0.0
2014-Nov-26 04:33N 35°27' E 139°39'0 0.0
2014-Nov-26 03:33N 35°27' E 139°39'0 0.0
2014-Nov-26 02:33N 35°27' E 139°39'0 0.0
2014-Nov-26 01:33N 35°27' E 139°39'0 0.0
2014-Nov-26 00:33N 35°27' E 139°39'2 1.7
2014-Nov-25 23:33N 35°28' E 139°41'2 2.3
2014-Nov-25 22:34N 35°27' E 139°43'3 3.4
2014-Nov-25 21:34N 35°27' E 139°39'0 0.0
2014-Nov-25 20:33N 35°27' E 139°39'0 0.0
2014-Nov-25 19:33N 35°27' E 139°39'0 0.0
2014-Nov-25 18:33N 35°27' E 139°39'0 0.0
2014-Nov-25 17:34N 35°27' E 139°39'0 0.0
2014-Nov-25 16:34N 35°27' E 139°39'0 0.0
2014-Nov-25 15:33N 35°27' E 139°39'0 0.0
2014-Nov-25 14:33N 35°27' E 139°39'0 0.0
2014-Nov-25 13:33N 35°27' E 139°39'0 0.0
2014-Nov-25 12:33N 35°27' E 139°39'0 0.0
2014-Nov-25 11:33N 35°27' E 139°39'0 0.0
2014-Nov-25 10:33N 35°27' E 139°39'0 0.0
2014-Nov-25 09:33N 35°27' E 139°39'0 0.0
2014-Nov-25 08:33N 35°27' E 139°39'0 0.0
2014-Nov-25 07:34N 35°27' E 139°39'0 0.0
2014-Nov-25 06:34N 35°27' E 139°39'0 0.0
2014-Nov-25 05:34N 35°27' E 139°39'0 0.0
2014-Nov-25 04:33N 35°27' E 139°39'1 0.5
2014-Nov-25 03:33N 35°27' E 139°40'6 6.4
2014-Nov-25 02:33N 35°31' E 139°46'2 2.0
2014-Nov-25 01:33N 35°30' E 139°48'4 4.1
2014-Nov-25 00:33N 35°28' E 139°43'1 0.8
2014-Nov-24 23:34N 35°27' E 139°42'1 0.6
2014-Nov-24 22:33N 35°28' E 139°42'1 1.3
2014-Nov-24 21:33N 35°27' E 139°43'1 1.2
2014-Nov-24 20:33N 35°28' E 139°42'2 2.2
2014-Nov-24 19:33N 35°27' E 139°39'0 0.0
2014-Nov-24 18:33N 35°27' E 139°39'0 0.0
2014-Nov-24 17:33N 35°27' E 139°39'0 0.0
2014-Nov-24 16:33N 35°27' E 139°39'0 0.0
2014-Nov-24 15:33N 35°27' E 139°39'0 0.0
2014-Nov-24 14:33N 35°27' E 139°39'0 0.0
2014-Nov-24 13:34N 35°27' E 139°39'0 0.0
2014-Nov-24 12:33N 35°27' E 139°39'0 0.0
2014-Nov-24 11:33N 35°27' E 139°39'0 0.0
2014-Nov-24 10:34N 35°27' E 139°39'0 0.0
2014-Nov-24 09:33N 35°27' E 139°39'0 0.0
2014-Nov-24 08:33N 35°27' E 139°39'0 0.0
2014-Nov-24 07:33N 35°27' E 139°39'3 3.1
2014-Nov-24 06:33N 35°24' E 139°41'1 0.8
2014-Nov-24 05:33N 35°24' E 139°42'2 1.9
2014-Nov-24 04:33N 35°25' E 139°41'0 0.1
2014-Nov-24 03:33N 35°25' E 139°41'1 1.2
2014-Nov-24 02:34N 35°25' E 139°42'2 2.3
2014-Nov-24 01:33N 35°24' E 139°39'3 2.5
2014-Nov-24 00:33N 35°22' E 139°41'1 0.6
2014-Nov-23 23:33N 35°23' E 139°40'1 1.1
2014-Nov-23 22:33N 35°23' E 139°41'4 3.6
2014-Nov-23 21:34N 35°27' E 139°41'2 1.7
2014-Nov-23 20:34N 35°27' E 139°39'0 0.0
2014-Nov-23 19:33N 35°27' E 139°39'0 0.0
2014-Nov-23 18:34N 35°27' E 139°39'0 0.0
2014-Nov-23 17:33N 35°27' E 139°39'0 0.0
2014-Nov-23 16:33N 35°27' E 139°39'0 0.0
2014-Nov-23 15:33N 35°27' E 139°39'0 0.0
2014-Nov-23 14:33N 35°27' E 139°39'0 0.0
2014-Nov-23 13:33N 35°27' E 139°39'0 0.0
2014-Nov-23 12:33N 35°27' E 139°39'0 0.0
2014-Nov-23 11:33N 35°27' E 139°39'0 0.0
2014-Nov-23 10:33N 35°27' E 139°39'3 2.8
2014-Nov-23 09:33N 35°28' E 139°42'1 0.7
2014-Nov-23 08:34N 35°28' E 139°43'2 2.1
2014-Nov-23 07:34N 35°26' E 139°42'6 6.4
2014-Nov-23 06:33N 35°31' E 139°46'5 5.2
2014-Nov-23 05:33N 35°27' E 139°43'3 2.8
2014-Nov-23 04:33N 35°27' E 139°40'0 0.2
2014-Nov-23 03:33N 35°27' E 139°40'1 0.6
2014-Nov-23 02:33N 35°27' E 139°40'6 6.0
2014-Nov-23 01:33N 35°31' E 139°46'1 0.5
2014-Nov-23 00:24N 35°30' E 139°46'2 2.2
2014-Nov-22 23:33N 35°30' E 139°44'2 2.2
2014-Nov-22 22:33N 35°28' E 139°43'2 2.0
2014-Nov-22 21:33N 35°27' E 139°45'4 4.5
2014-Nov-22 20:33N 35°27' E 139°39'1 0.5
2014-Nov-22 19:33N 35°27' E 139°39'0 0.0
2014-Nov-22 18:33N 35°27' E 139°39'0 0.0
2014-Nov-22 17:33N 35°27' E 139°39'0 0.0
2014-Nov-22 16:33N 35°27' E 139°39'0 0.0
2014-Nov-22 15:33N 35°27' E 139°39'0 0.0
2014-Nov-22 14:34N 35°27' E 139°39'0 0.0
2014-Nov-22 13:33N 35°27' E 139°39'0 0.0
2014-Nov-22 12:33N 35°27' E 139°39'0 0.0
2014-Nov-22 11:33N 35°27' E 139°39'0 0.0
2014-Nov-22 10:33N 35°27' E 139°39'1 0.9
2014-Nov-22 09:33N 35°28' E 139°40'2 2.5
2014-Nov-22 08:34N 35°27' E 139°43'1 0.7
2014-Nov-22 07:34N 35°27' E 139°42'1 1.0
2014-Nov-22 06:33N 35°27' E 139°41'1 1.1
2014-Nov-22 05:33N 35°26' E 139°41'1 1.4
2014-Nov-22 04:33N 35°27' E 139°39'0 0.0
2014-Nov-22 03:34N 35°27' E 139°39'0 0.5
2014-Nov-22 02:34N 35°28' E 139°40'6 6.3
2014-Nov-22 01:33N 35°31' E 139°46'2 2.2
2014-Nov-22 00:33N 35°29' E 139°48'3 2.7
2014-Nov-21 23:34N 35°27' E 139°45'5 4.8
2014-Nov-21 22:33N 35°27' E 139°39'0 0.0
2014-Nov-21 21:34N 35°27' E 139°39'0 0.0
2014-Nov-21 20:33N 35°27' E 139°39'0 0.0
2014-Nov-21 19:33N 35°27' E 139°39'0 0.0
2014-Nov-21 18:33N 35°27' E 139°39'0 0.0
2014-Nov-21 17:34N 35°27' E 139°39'0 0.0
2014-Nov-21 16:33N 35°27' E 139°39'0 0.0
2014-Nov-21 15:33N 35°27' E 139°39'0 0.0
2014-Nov-21 14:33N 35°27' E 139°39'0 0.0
2014-Nov-21 13:33N 35°27' E 139°39'0 0.0
2014-Nov-21 12:34N 35°27' E 139°39'0 0.0
2014-Nov-21 11:33N 35°27' E 139°39'0 0.0
2014-Nov-21 10:34N 35°27' E 139°39'0 0.0
2014-Nov-21 09:34N 35°27' E 139°39'0 0.0
2014-Nov-21 08:33N 35°27' E 139°39'0 0.0
2014-Nov-21 07:33N 35°27' E 139°39'0 0.0
2014-Nov-21 06:33N 35°27' E 139°39'2 1.9
2014-Nov-21 05:33N 35°27' E 139°41'1 0.7
2014-Nov-21 04:33N 35°27' E 139°41'1010.1
2014-Nov-21 03:33N 35°17' E 139°44'1 0.6
2014-Nov-21 02:33N 35°18' E 139°44'8 7.7
2014-Nov-21 01:34N 35°24' E 139°39'0 0.4
2014-Nov-21 00:33N 35°25' E 139°39'0 0.4
2014-Nov-20 23:33N 35°24' E 139°39'0 0.0
2014-Nov-20 22:34N 35°24' E 139°39'3 3.4
2014-Nov-20 21:34N 35°27' E 139°42'1 1.0
2014-Nov-20 20:33N 35°27' E 139°40'1 0.8
2014-Nov-20 19:33N 35°27' E 139°39'0 0.0
2014-Nov-20 18:33N 35°27' E 139°39'0 0.0
2014-Nov-20 17:33N 35°27' E 139°39'0 0.0
2014-Nov-20 16:33N 35°27' E 139°39'0 0.0
2014-Nov-20 15:33N 35°27' E 139°39'0 0.0
2014-Nov-20 14:33N 35°27' E 139°39'0 0.0
2014-Nov-20 13:33N 35°27' E 139°39'0 0.0
2014-Nov-20 12:33N 35°27' E 139°39'1 1.1
2014-Nov-20 11:33N 35°27' E 139°41'1 1.2
2014-Nov-20 10:33N 35°26' E 139°42'0 0.0
2014-Nov-20 09:33N 35°26' E 139°42'2 2.5
2014-Nov-20 08:33N 35°24' E 139°40'0 0.4
2014-Nov-20 07:33N 35°24' E 139°41'1 0.9
2014-Nov-20 06:33N 35°23' E 139°40'0 0.0
2014-Nov-20 05:33N 35°23' E 139°40'1 1.2
2014-Nov-20 04:33N 35°25' E 139°39'2 1.8
2014-Nov-20 03:34N 35°23' E 139°40'0 0.0
2014-Nov-20 02:33N 35°23' E 139°40'0 0.0
2014-Nov-20 01:33N 35°23' E 139°40'2 1.7
2014-Nov-20 00:34N 35°24' E 139°39'3 0.5
2014-Nov-19 18:16N 35°27' E 139°39'0 0.0
2014-Nov-19 17:33N 35°27' E 139°39'0 0.0
2014-Nov-19 16:33N 35°27' E 139°39'0 0.0
2014-Nov-19 15:33N 35°27' E 139°39'0 0.0
2014-Nov-19 14:33N 35°27' E 139°39'0 0.0
2014-Nov-19 13:33N 35°27' E 139°39'0 0.0
2014-Nov-19 12:33N 35°27' E 139°39'0 0.0
2014-Nov-19 11:33N 35°27' E 139°39'0 0.0
2014-Nov-19 10:33N 35°27' E 139°39'0 0.0
2014-Nov-19 09:33N 35°27' E 139°39'0 0.0
2014-Nov-19 08:33N 35°27' E 139°39'0 0.0
2014-Nov-19 07:33N 35°27' E 139°39'0 0.0
2014-Nov-19 06:33N 35°27' E 139°39'0 0.0
2014-Nov-19 05:33N 35°27' E 139°39'0 0.0
2014-Nov-19 04:33N 35°27' E 139°39'0 0.0
2014-Nov-19 03:33N 35°27' E 139°39'0 0.0
2014-Nov-19 02:33N 35°27' E 139°39'1 0.6
2014-Nov-19 01:34N 35°27' E 139°40'4 4.3
2014-Nov-19 00:33N 35°30' E 139°44'1 0.7
2014-Nov-18 23:33N 35°29' E 139°43'3 2.9
2014-Nov-18 22:33N 35°31' E 139°46'4 4.4
2014-Nov-18 21:33N 35°28' E 139°42'2 1.5
2014-Nov-18 20:34N 35°28' E 139°44'2 2.2
2014-Nov-18 19:33N 35°28' E 139°41'2 2.1
2014-Nov-18 18:34N 35°28' E 139°44'0 0.0
2014-Nov-18 17:33N 35°28' E 139°44'0 0.0
2014-Nov-18 16:33N 35°28' E 139°44'2 2.4
2014-Nov-18 15:33N 35°27' E 139°41'1 1.2
2014-Nov-18 14:34N 35°28' E 139°42'0 0.5
2014-Nov-18 13:33N 35°27' E 139°42'0 0.0
2014-Nov-18 12:33N 35°27' E 139°42'0 0.0
2014-Nov-18 11:33N 35°27' E 139°42'2 1.6
2014-Nov-18 10:33N 35°27' E 139°40'1 0.9
2014-Nov-18 09:33N 35°28' E 139°41'1 0.7
2014-Nov-18 08:34N 35°27' E 139°41'1 0.7
2014-Nov-18 07:33N 35°28' E 139°41'0 0.0
2014-Nov-18 06:33N 35°28' E 139°41'0 0.0
2014-Nov-18 05:33N 35°28' E 139°41'0 0.0
2014-Nov-18 04:33N 35°28' E 139°41'3 2.7
2014-Nov-18 03:33N 35°25' E 139°42'2 2.3
2014-Nov-18 02:33N 35°25' E 139°39'3 2.7
2014-Nov-18 01:34N 35°23' E 139°41'5 4.6
2014-Nov-18 00:33N 35°27' E 139°40'1 0.8
2014-Nov-17 23:33N 35°27' E 139°39'0 0.0
2014-Nov-17 22:33N 35°27' E 139°39'  
Track history (hours):
 
Tides and Currents Weather Stations Pressure Air Temp Water Temp Dewpoint Dewpoint Depression Visibility Wind Speed Wind Dir Waves Ship Positions

Awaji Maru

Last reported at 2014-Nov-27 21:33 UTC. Time now 2014-Nov-27 21:59 UTC.
Position N 35°27' E 139°39'.

Length 37 m; draft 3 m.

Type: Tug. MMSI: 431001074.

Date/timePositionNaut miles runAvg speedWind from/ knotsBaromVisibWave heightAir tempDewpointWater temp
2014-Nov-27 21:33N 35°27' E 139°39'1 0.6
2014-Nov-27 20:33N 35°27' E 139°39'0 0.0
2014-Nov-27 19:33N 35°27' E 139°39'0 0.0
2014-Nov-27 18:34N 35°27' E 139°39'0 0.0
2014-Nov-27 17:33N 35°27' E 139°39'0 0.0
2014-Nov-27 16:33N 35°27' E 139°39'0 0.0
2014-Nov-27 15:33N 35°27' E 139°39'0 0.0
2014-Nov-27 14:33N 35°27' E 139°39'0 0.0
2014-Nov-27 13:33N 35°27' E 139°39'0 0.0
2014-Nov-27 12:33N 35°27' E 139°39'0 0.0
2014-Nov-27 11:33N 35°27' E 139°39'0 0.0
2014-Nov-27 10:33N 35°27' E 139°39'0 0.0
2014-Nov-27 09:34N 35°27' E 139°39'0 0.0
2014-Nov-27 08:34N 35°27' E 139°39'0 0.0
2014-Nov-27 07:34N 35°27' E 139°39'0 0.0
2014-Nov-27 06:33N 35°27' E 139°39'0 0.0
2014-Nov-27 05:34N 35°27' E 139°39'0 0.0
2014-Nov-27 04:33N 35°27' E 139°39'0 0.0
2014-Nov-27 03:33N 35°27' E 139°39'0 0.0
2014-Nov-27 02:33N 35°27' E 139°39'0 0.0
2014-Nov-27 01:33N 35°27' E 139°39'0 0.0
2014-Nov-27 00:34N 35°27' E 139°39'0 0.0
2014-Nov-26 23:33N 35°27' E 139°39'2 1.8
2014-Nov-26 22:33N 35°27' E 139°41'1 0.9
2014-Nov-26 21:34N 35°27' E 139°42'0 0.0
2014-Nov-26 20:34N 35°27' E 139°42'0 0.0
2014-Nov-26 19:33N 35°27' E 139°42'0 0.0
2014-Nov-26 18:34N 35°27' E 139°42'0 0.0
2014-Nov-26 17:33N 35°27' E 139°42'1 0.8
2014-Nov-26 16:33N 35°28' E 139°42'1 1.0
2014-Nov-26 15:34N 35°28' E 139°40'0 0.0
2014-Nov-26 14:33N 35°28' E 139°40'0 0.0
2014-Nov-26 13:34N 35°28' E 139°40'1 0.8
2014-Nov-26 12:33N 35°27' E 139°41'0 0.1
2014-Nov-26 11:33N 35°27' E 139°41'1 0.6
2014-Nov-26 10:33N 35°28' E 139°42'2 2.4
2014-Nov-26 09:34N 35°27' E 139°44'4 4.2
2014-Nov-26 08:33N 35°27' E 139°39'0 0.4
2014-Nov-26 07:33N 35°27' E 139°39'0 0.0
2014-Nov-26 06:33N 35°27' E 139°39'0 0.0
2014-Nov-26 05:33N 35°27' E 139°39'0 0.0
2014-Nov-26 04:33N 35°27' E 139°39'0 0.0
2014-Nov-26 03:33N 35°27' E 139°39'0 0.0
2014-Nov-26 02:33N 35°27' E 139°39'0 0.0
2014-Nov-26 01:33N 35°27' E 139°39'0 0.0
2014-Nov-26 00:33N 35°27' E 139°39'2 1.7
2014-Nov-25 23:33N 35°28' E 139°41'2 2.3
2014-Nov-25 22:34N 35°27' E 139°43'3 3.4
2014-Nov-25 21:34N 35°27' E 139°39'0 0.0
2014-Nov-25 20:33N 35°27' E 139°39'0 0.0
2014-Nov-25 19:33N 35°27' E 139°39'0 0.0
2014-Nov-25 18:33N 35°27' E 139°39'0 0.0
2014-Nov-25 17:34N 35°27' E 139°39'0 0.0
2014-Nov-25 16:34N 35°27' E 139°39'0 0.0
2014-Nov-25 15:33N 35°27' E 139°39'0 0.0
2014-Nov-25 14:33N 35°27' E 139°39'0 0.0
2014-Nov-25 13:33N 35°27' E 139°39'0 0.0
2014-Nov-25 12:33N 35°27' E 139°39'0 0.0
2014-Nov-25 11:33N 35°27' E 139°39'0 0.0
2014-Nov-25 10:33N 35°27' E 139°39'0 0.0
2014-Nov-25 09:33N 35°27' E 139°39'0 0.0
2014-Nov-25 08:33N 35°27' E 139°39'0 0.0
2014-Nov-25 07:34N 35°27' E 139°39'0 0.0
2014-Nov-25 06:34N 35°27' E 139°39'0 0.0
2014-Nov-25 05:34N 35°27' E 139°39'0 0.0
2014-Nov-25 04:33N 35°27' E 139°39'1 0.5
2014-Nov-25 03:33N 35°27' E 139°40'6 6.4
2014-Nov-25 02:33N 35°31' E 139°46'2 2.0
2014-Nov-25 01:33N 35°30' E 139°48'4 4.1
2014-Nov-25 00:33N 35°28' E 139°43'1 0.8
2014-Nov-24 23:34N 35°27' E 139°42'1 0.6
2014-Nov-24 22:33N 35°28' E 139°42'1 1.3
2014-Nov-24 21:33N 35°27' E 139°43'1 1.2
2014-Nov-24 20:33N 35°28' E 139°42'2 2.2
2014-Nov-24 19:33N 35°27' E 139°39'0 0.0
2014-Nov-24 18:33N 35°27' E 139°39'0 0.0
2014-Nov-24 17:33N 35°27' E 139°39'0 0.0
2014-Nov-24 16:33N 35°27' E 139°39'0 0.0
2014-Nov-24 15:33N 35°27' E 139°39'0 0.0
2014-Nov-24 14:33N 35°27' E 139°39'0 0.0
2014-Nov-24 13:34N 35°27' E 139°39'0 0.0
2014-Nov-24 12:33N 35°27' E 139°39'0 0.0
2014-Nov-24 11:33N 35°27' E 139°39'0 0.0
2014-Nov-24 10:34N 35°27' E 139°39'0 0.0
2014-Nov-24 09:33N 35°27' E 139°39'0 0.0
2014-Nov-24 08:33N 35°27' E 139°39'0 0.0
2014-Nov-24 07:33N 35°27' E 139°39'3 3.1
2014-Nov-24 06:33N 35°24' E 139°41'1 0.8
2014-Nov-24 05:33N 35°24' E 139°42'2 1.9
2014-Nov-24 04:33N 35°25' E 139°41'0 0.1
2014-Nov-24 03:33N 35°25' E 139°41'1 1.2
2014-Nov-24 02:34N 35°25' E 139°42'2 2.3
2014-Nov-24 01:33N 35°24' E 139°39'3 2.5
2014-Nov-24 00:33N 35°22' E 139°41'1 0.6
2014-Nov-23 23:33N 35°23' E 139°40'1 1.1
2014-Nov-23 22:33N 35°23' E 139°41'4 3.6
2014-Nov-23 21:34N 35°27' E 139°41'2 1.7
2014-Nov-23 20:34N 35°27' E 139°39'0 0.0
2014-Nov-23 19:33N 35°27' E 139°39'0 0.0
2014-Nov-23 18:34N 35°27' E 139°39'0 0.0
2014-Nov-23 17:33N 35°27' E 139°39'0 0.0
2014-Nov-23 16:33N 35°27' E 139°39'0 0.0
2014-Nov-23 15:33N 35°27' E 139°39'0 0.0
2014-Nov-23 14:33N 35°27' E 139°39'0 0.0
2014-Nov-23 13:33N 35°27' E 139°39'0 0.0
2014-Nov-23 12:33N 35°27' E 139°39'0 0.0
2014-Nov-23 11:33N 35°27' E 139°39'0 0.0
2014-Nov-23 10:33N 35°27' E 139°39'3 2.8
2014-Nov-23 09:33N 35°28' E 139°42'1 0.7
2014-Nov-23 08:34N 35°28' E 139°43'2 2.1
2014-Nov-23 07:34N 35°26' E 139°42'6 6.4
2014-Nov-23 06:33N 35°31' E 139°46'5 5.2
2014-Nov-23 05:33N 35°27' E 139°43'3 2.8
2014-Nov-23 04:33N 35°27' E 139°40'0 0.2
2014-Nov-23 03:33N 35°27' E 139°40'1 0.6
2014-Nov-23 02:33N 35°27' E 139°40'6 6.0
2014-Nov-23 01:33N 35°31' E 139°46'1 0.5
2014-Nov-23 00:24N 35°30' E 139°46'2 2.2
2014-Nov-22 23:33N 35°30' E 139°44'2 2.2
2014-Nov-22 22:33N 35°28' E 139°43'2 2.0
2014-Nov-22 21:33N 35°27' E 139°45'4 4.5
2014-Nov-22 20:33N 35°27' E 139°39'1 0.5
2014-Nov-22 19:33N 35°27' E 139°39'0 0.0
2014-Nov-22 18:33N 35°27' E 139°39'0 0.0
2014-Nov-22 17:33N 35°27' E 139°39'0 0.0
2014-Nov-22 16:33N 35°27' E 139°39'0 0.0
2014-Nov-22 15:33N 35°27' E 139°39'0 0.0
2014-Nov-22 14:34N 35°27' E 139°39'0 0.0
2014-Nov-22 13:33N 35°27' E 139°39'0 0.0
2014-Nov-22 12:33N 35°27' E 139°39'0 0.0
2014-Nov-22 11:33N 35°27' E 139°39'0 0.0
2014-Nov-22 10:33N 35°27' E 139°39'1 0.9
2014-Nov-22 09:33N 35°28' E 139°40'2 2.5
2014-Nov-22 08:34N 35°27' E 139°43'1 0.7
2014-Nov-22 07:34N 35°27' E 139°42'1 1.0
2014-Nov-22 06:33N 35°27' E 139°41'1 1.1
2014-Nov-22 05:33N 35°26' E 139°41'1 1.4
2014-Nov-22 04:33N 35°27' E 139°39'0 0.0
2014-Nov-22 03:34N 35°27' E 139°39'0 0.5
2014-Nov-22 02:34N 35°28' E 139°40'6 6.3
2014-Nov-22 01:33N 35°31' E 139°46'2 2.2
2014-Nov-22 00:33N 35°29' E 139°48'3 2.7
2014-Nov-21 23:34N 35°27' E 139°45'5 4.8
2014-Nov-21 22:33N 35°27' E 139°39'0 0.0
2014-Nov-21 21:34N 35°27' E 139°39'0 0.0
2014-Nov-21 20:33N 35°27' E 139°39'0 0.0
2014-Nov-21 19:33N 35°27' E 139°39'0 0.0
2014-Nov-21 18:33N 35°27' E 139°39'0 0.0
2014-Nov-21 17:34N 35°27' E 139°39'0 0.0
2014-Nov-21 16:33N 35°27' E 139°39'0 0.0
2014-Nov-21 15:33N 35°27' E 139°39'0 0.0
2014-Nov-21 14:33N 35°27' E 139°39'0 0.0
2014-Nov-21 13:33N 35°27' E 139°39'0 0.0
2014-Nov-21 12:34N 35°27' E 139°39'0 0.0
2014-Nov-21 11:33N 35°27' E 139°39'0 0.0
2014-Nov-21 10:34N 35°27' E 139°39'0 0.0
2014-Nov-21 09:34N 35°27' E 139°39'0 0.0
2014-Nov-21 08:33N 35°27' E 139°39'0 0.0
2014-Nov-21 07:33N 35°27' E 139°39'0 0.0
2014-Nov-21 06:33N 35°27' E 139°39'2 1.9
2014-Nov-21 05:33N 35°27' E 139°41'1 0.7
2014-Nov-21 04:33N 35°27' E 139°41'1010.1
2014-Nov-21 03:33N 35°17' E 139°44'1 0.6
2014-Nov-21 02:33N 35°18' E 139°44'8 7.7
2014-Nov-21 01:34N 35°24' E 139°39'0 0.4
2014-Nov-21 00:33N 35°25' E 139°39'0 0.4
2014-Nov-20 23:33N 35°24' E 139°39'0 0.0
2014-Nov-20 22:34N 35°24' E 139°39'3 3.4
2014-Nov-20 21:34N 35°27' E 139°42'1 1.0
2014-Nov-20 20:33N 35°27' E 139°40'1 0.8
2014-Nov-20 19:33N 35°27' E 139°39'0 0.0
2014-Nov-20 18:33N 35°27' E 139°39'0 0.0
2014-Nov-20 17:33N 35°27' E 139°39'0 0.0
2014-Nov-20 16:33N 35°27' E 139°39'0 0.0
2014-Nov-20 15:33N 35°27' E 139°39'0 0.0
2014-Nov-20 14:33N 35°27' E 139°39'0 0.0
2014-Nov-20 13:33N 35°27' E 139°39'0 0.0
2014-Nov-20 12:33N 35°27' E 139°39'1 1.1
2014-Nov-20 11:33N 35°27' E 139°41'1 1.2
2014-Nov-20 10:33N 35°26' E 139°42'0 0.0
2014-Nov-20 09:33N 35°26' E 139°42'2 2.5
2014-Nov-20 08:33N 35°24' E 139°40'0 0.4
2014-Nov-20 07:33N 35°24' E 139°41'1 0.9
2014-Nov-20 06:33N 35°23' E 139°40'0 0.0
2014-Nov-20 05:33N 35°23' E 139°40'1 1.2
2014-Nov-20 04:33N 35°25' E 139°39'2 1.8
2014-Nov-20 03:34N 35°23' E 139°40'0 0.0
2014-Nov-20 02:33N 35°23' E 139°40'0 0.0
2014-Nov-20 01:33N 35°23' E 139°40'2 1.7
2014-Nov-20 00:34N 35°24' E 139°39'3 0.5
2014-Nov-19 18:16N 35°27' E 139°39'0 0.0
2014-Nov-19 17:33N 35°27' E 139°39'0 0.0
2014-Nov-19 16:33N 35°27' E 139°39'0 0.0
2014-Nov-19 15:33N 35°27' E 139°39'0 0.0
2014-Nov-19 14:33N 35°27' E 139°39'0 0.0
2014-Nov-19 13:33N 35°27' E 139°39'0 0.0
2014-Nov-19 12:33N 35°27' E 139°39'0 0.0
2014-Nov-19 11:33N 35°27' E 139°39'0 0.0
2014-Nov-19 10:33N 35°27' E 139°39'0 0.0
2014-Nov-19 09:33N 35°27' E 139°39'0 0.0
2014-Nov-19 08:33N 35°27' E 139°39'0 0.0
2014-Nov-19 07:33N 35°27' E 139°39'0 0.0
2014-Nov-19 06:33N 35°27' E 139°39'0 0.0
2014-Nov-19 05:33N 35°27' E 139°39'0 0.0
2014-Nov-19 04:33N 35°27' E 139°39'0 0.0
2014-Nov-19 03:33N 35°27' E 139°39'0 0.0
2014-Nov-19 02:33N 35°27' E 139°39'1 0.6
2014-Nov-19 01:34N 35°27' E 139°40'4 4.3
2014-Nov-19 00:33N 35°30' E 139°44'1 0.7
2014-Nov-18 23:33N 35°29' E 139°43'3 2.9
2014-Nov-18 22:33N 35°31' E 139°46'4 4.4
2014-Nov-18 21:33N 35°28' E 139°42'2 1.5
2014-Nov-18 20:34N 35°28' E 139°44'2 2.2
2014-Nov-18 19:33N 35°28' E 139°41'2 2.1
2014-Nov-18 18:34N 35°28' E 139°44'0 0.0
2014-Nov-18 17:33N 35°28' E 139°44'0 0.0
2014-Nov-18 16:33N 35°28' E 139°44'2 2.4
2014-Nov-18 15:33N 35°27' E 139°41'1 1.2
2014-Nov-18 14:34N 35°28' E 139°42'0 0.5
2014-Nov-18 13:33N 35°27' E 139°42'0 0.0
2014-Nov-18 12:33N 35°27' E 139°42'0 0.0
2014-Nov-18 11:33N 35°27' E 139°42'2 1.6
2014-Nov-18 10:33N 35°27' E 139°40'1 0.9
2014-Nov-18 09:33N 35°28' E 139°41'1 0.7
2014-Nov-18 08:34N 35°27' E 139°41'1 0.7
2014-Nov-18 07:33N 35°28' E 139°41'0 0.0
2014-Nov-18 06:33N 35°28' E 139°41'0 0.0
2014-Nov-18 05:33N 35°28' E 139°41'0 0.0
2014-Nov-18 04:33N 35°28' E 139°41'3 2.7
2014-Nov-18 03:33N 35°25' E 139°42'2 2.3
2014-Nov-18 02:33N 35°25' E 139°39'3 2.7
2014-Nov-18 01:34N 35°23' E 139°41'5 4.6
2014-Nov-18 00:33N 35°27' E 139°40'1 0.8
2014-Nov-17 23:33N 35°27' E 139°39'0 0.0
2014-Nov-17 22:33N 35°27' E 139°39'  

Dump ship's entire track history